createdAt,value
2023-02-05T00:01:32.456Z,-1.60
2023-02-05T00:06:35.791Z,-1.60
2023-02-05T00:11:39.248Z,-1.70
2023-02-05T00:16:43.962Z,-1.60
2023-02-05T00:21:49.567Z,-1.70
2023-02-05T00:26:53.130Z,-1.80
2023-02-05T00:31:57.811Z,-1.80
2023-02-05T00:37:01.200Z,-1.10
2023-02-05T00:42:04.559Z,-1.70
2023-02-05T00:47:11.362Z,-1.70
2023-02-05T00:52:14.784Z,0.50
2023-02-05T00:57:18.107Z,-0.60
2023-02-05T01:02:24.340Z,-1.00
2023-02-05T01:07:27.637Z,-1.70
2023-02-05T01:12:33.309Z,-1.70
2023-02-05T01:17:38.116Z,-0.80
2023-02-05T01:22:41.437Z,-1.80
2023-02-05T01:27:44.951Z,-1.90
2023-02-05T01:32:49.742Z,-1.90
2023-02-05T01:37:53.029Z,-1.60
2023-02-05T01:42:56.383Z,-2.00
2023-02-05T01:48:02.705Z,-1.80
2023-02-05T01:53:09.611Z,-2.10
2023-02-05T01:58:14.273Z,-2.20
2023-02-05T02:03:19.238Z,0.00
2023-02-05T02:08:22.702Z,-2.30
2023-02-05T02:13:29.857Z,-2.30
2023-02-05T02:18:36.600Z,-2.40
2023-02-05T02:23:50.652Z,-2.50
2023-02-05T02:29:01.752Z,-2.50
2023-02-05T02:34:12.412Z,-1.80
2023-02-05T02:39:22.297Z,-0.50
2023-02-05T02:44:32.627Z,-2.50
2023-02-05T02:49:40.399Z,-0.60
2023-02-05T02:54:46.974Z,-2.60
2023-02-05T02:59:55.729Z,-2.70
2023-02-05T03:05:03.379Z,-1.80
2023-02-05T03:10:13.846Z,-2.70
2023-02-05T03:15:18.907Z,-2.70
2023-02-05T03:20:26.622Z,-2.70
2023-02-05T03:25:33.839Z,-2.70
2023-02-05T03:30:51.217Z,-2.80
2023-02-05T03:36:04.497Z,-2.80
2023-02-05T03:41:16.793Z,-1.30
2023-02-05T03:46:29.072Z,-3.00
2023-02-05T03:51:41.180Z,-3.00
2023-02-05T03:56:56.708Z,-2.00
2023-02-05T04:02:04.810Z,-3.00
2023-02-05T04:07:13.240Z,-3.10
2023-02-05T04:12:17.763Z,-3.10
2023-02-05T04:17:23.280Z,-3.00
2023-02-05T04:22:27.008Z,-3.00
2023-02-05T04:27:30.532Z,-3.20
2023-02-05T04:32:38.853Z,-2.70
2023-02-05T04:37:42.622Z,-3.10
2023-02-05T04:42:46.895Z,-1.60
2023-02-05T04:47:51.855Z,-3.20
2023-02-05T04:52:55.414Z,-3.00
2023-02-05T04:57:59.295Z,-2.80
2023-02-05T05:03:04.208Z,-2.60
2023-02-05T05:08:07.615Z,-2.60
2023-02-05T05:13:10.933Z,-2.20
2023-02-05T05:18:15.697Z,-2.60
2023-02-05T05:23:19.057Z,-2.50
2023-02-05T05:28:22.501Z,-1.90
2023-02-05T05:33:28.408Z,-2.60
2023-02-05T05:38:31.780Z,-2.60
2023-02-05T05:43:50.025Z,-2.60
2023-02-05T05:48:56.768Z,-2.60
2023-02-05T05:54:00.191Z,-2.60
2023-02-05T05:59:03.653Z,-2.80
2023-02-05T06:04:08.667Z,-2.70
2023-02-05T06:09:12.082Z,-2.90
2023-02-05T06:14:15.848Z,-3.10
2023-02-05T06:19:20.881Z,-3.10
2023-02-05T06:24:24.351Z,-0.60
2023-02-05T06:29:27.721Z,-3.20
2023-02-05T06:34:32.768Z,-2.10
2023-02-05T06:39:36.141Z,-3.00
2023-02-05T06:44:39.457Z,-3.00
2023-02-05T06:49:44.318Z,-2.90
2023-02-05T06:54:47.745Z,-2.90
2023-02-05T06:59:51.114Z,-2.80
2023-02-05T07:04:55.885Z,-2.70
2023-02-05T07:09:59.438Z,-2.70
2023-02-05T07:15:02.916Z,-2.30
2023-02-05T07:20:09.346Z,-1.80
2023-02-05T07:25:13.150Z,-2.70
2023-02-05T07:30:17.137Z,-1.30
2023-02-05T07:35:22.294Z,-2.60
2023-02-05T07:40:25.969Z,-2.40
2023-02-05T07:45:29.705Z,-2.40
2023-02-05T07:50:34.515Z,-2.50
2023-02-05T07:55:37.995Z,-1.80
2023-02-05T08:00:41.919Z,-1.10
2023-02-05T08:05:46.687Z,-2.10
2023-02-05T08:10:56.072Z,-0.60
2023-02-05T08:15:59.736Z,-1.20
2023-02-05T08:21:04.622Z,-0.10
2023-02-05T08:26:08.008Z,0.80
2023-02-05T08:31:12.392Z,0.00
2023-02-05T08:36:17.196Z,-0.40
2023-02-05T08:41:20.792Z,0.70
2023-02-05T08:46:31.566Z,3.90
2023-02-05T08:51:43.169Z,3.10
2023-02-05T08:56:50.304Z,2.70
2023-02-05T09:01:53.836Z,3.50
2023-02-05T09:06:59.454Z,6.70
2023-02-05T09:12:02.955Z,5.20
2023-02-05T09:17:07.431Z,7.60
2023-02-05T09:22:12.190Z,6.90
2023-02-05T09:27:15.494Z,5.90
2023-02-05T09:32:18.801Z,7.40
2023-02-05T09:37:23.752Z,4.90
2023-02-05T09:42:35.167Z,6.20
2023-02-05T09:47:48.658Z,3.30
2023-02-05T09:52:57.866Z,4.30
2023-02-05T09:58:07.452Z,5.10
2023-02-05T10:03:19.154Z,7.70
2023-02-05T10:08:32.336Z,5.20
2023-02-05T10:13:37.508Z,3.00
2023-02-05T10:18:52.776Z,3.40
2023-02-05T10:24:25.163Z,6.60
2023-02-05T10:29:36.419Z,5.20
2023-02-05T10:34:59.527Z,8.10
2023-02-05T10:40:12.032Z,4.70
2023-02-05T10:45:19.271Z,5.10
2023-02-05T10:50:29.038Z,3.50
2023-02-05T10:55:34.088Z,3.20
2023-02-05T11:00:37.982Z,6.20
2023-02-05T11:05:44.070Z,4.40
2023-02-05T11:10:54.324Z,4.50
2023-02-05T11:16:00.828Z,6.30
2023-02-05T11:21:08.902Z,7.80
2023-02-05T11:26:20.220Z,4.20
2023-02-05T11:31:27.183Z,7.00
2023-02-05T11:36:31.441Z,3.90
2023-02-05T11:41:48.441Z,7.70
2023-02-05T11:46:57.066Z,7.20
2023-02-05T11:52:01.827Z,4.70
2023-02-05T11:57:09.312Z,5.00
2023-02-05T12:02:33.438Z,5.90
2023-02-05T12:07:43.699Z,6.20
2023-02-05T12:12:57.044Z,8.30
2023-02-05T12:18:14.838Z,5.90
2023-02-05T12:23:33.013Z,5.80
2023-02-05T12:28:48.807Z,7.60
2023-02-05T12:34:11.290Z,6.00
2023-02-05T12:39:27.733Z,6.40
2023-02-05T12:44:44.367Z,5.20
2023-02-05T12:50:15.002Z,7.40
2023-02-05T12:55:33.323Z,7.30
2023-02-05T13:00:45.976Z,6.60
2023-02-05T13:05:52.360Z,5.90
2023-02-05T13:11:01.015Z,4.30
2023-02-05T13:16:10.741Z,7.80
2023-02-05T13:21:34.431Z,4.20
2023-02-05T13:26:58.845Z,4.30
2023-02-05T13:32:15.948Z,5.70
2023-02-05T13:37:34.998Z,4.00
2023-02-05T13:43:08.772Z,3.90
2023-02-05T13:48:38.209Z,7.50
2023-02-05T13:54:02.878Z,7.00
2023-02-05T13:59:11.574Z,3.80
2023-02-05T14:04:24.291Z,3.90
2023-02-05T14:09:35.213Z,4.60
2023-02-05T14:14:39.062Z,3.80
2023-02-05T14:19:59.015Z,3.60
2023-02-05T14:25:03.211Z,3.40
2023-02-05T14:30:51.847Z,3.30
2023-02-05T14:35:58.790Z,3.20
2023-02-05T14:41:05.447Z,4.50
2023-02-05T14:46:22.408Z,3.10
2023-02-05T14:51:32.561Z,3.00
2023-02-05T14:56:45.033Z,3.00
2023-02-05T15:01:54.628Z,5.70
2023-02-05T15:07:03.411Z,3.10
2023-02-05T15:12:33.332Z,6.50
2023-02-05T15:17:51.544Z,2.90
2023-02-05T15:23:06.137Z,3.00
2023-02-05T15:28:19.694Z,6.20
2023-02-05T15:33:35.927Z,2.90
2023-02-05T15:38:48.507Z,2.80
2023-02-05T15:44:02.996Z,2.60
2023-02-05T15:49:07.513Z,2.60
2023-02-05T15:54:20.359Z,2.50
2023-02-05T15:59:28.051Z,2.40
2023-02-05T16:04:33.324Z,2.20
2023-02-05T16:09:39.289Z,4.10
2023-02-05T16:14:43.798Z,2.20
2023-02-05T16:19:50.914Z,2.00
2023-02-05T16:24:59.149Z,2.00
2023-02-05T16:30:08.053Z,1.90
2023-02-05T16:35:21.516Z,1.70
2023-02-05T16:40:36.610Z,1.70
2023-02-05T16:45:40.396Z,1.60
2023-02-05T16:50:44.978Z,1.60
2023-02-05T16:55:51.061Z,1.30
2023-02-05T17:00:57.396Z,1.10
2023-02-05T17:06:03.085Z,3.40
2023-02-05T17:11:12.739Z,0.90
2023-02-05T17:16:40.394Z,0.70
2023-02-05T17:21:43.830Z,0.70
2023-02-05T17:26:48.660Z,0.60
2023-02-05T17:31:52.115Z,0.50
2023-02-05T17:36:55.515Z,0.30
2023-02-05T17:42:07.815Z,0.20
2023-02-05T17:47:11.300Z,0.20
2023-02-05T17:52:15.503Z,0.30
2023-02-05T17:57:22.350Z,0.20
2023-02-05T18:02:25.647Z,1.60
2023-02-05T18:07:35.068Z,0.00
2023-02-05T18:12:39.843Z,-0.20
2023-02-05T18:17:43.139Z,-0.20
2023-02-05T18:22:46.523Z,-0.20
2023-02-05T18:27:51.403Z,-0.30
2023-02-05T18:32:54.733Z,-0.50
2023-02-05T18:37:58.426Z,-0.40
2023-02-05T18:43:04.858Z,-0.80
2023-02-05T18:48:08.183Z,-0.90
2023-02-05T18:53:11.506Z,-1.10
2023-02-05T18:58:16.176Z,-0.90
2023-02-05T19:03:20.115Z,-1.20
2023-02-05T19:08:23.385Z,-4.30
2023-02-05T19:13:30.553Z,-1.40
2023-02-05T19:18:34.043Z,-1.30
2023-02-05T19:23:37.504Z,-0.80
2023-02-05T19:28:43.595Z,-1.10
2023-02-05T19:33:47.063Z,-1.60
2023-02-05T19:38:51.014Z,-1.70
2023-02-05T19:43:57.459Z,-1.80
2023-02-05T19:49:03.053Z,-1.90
2023-02-05T19:54:06.824Z,-1.90
2023-02-05T19:59:12.742Z,0.40
2023-02-05T20:04:18.456Z,-1.60
2023-02-05T20:09:21.756Z,-2.00
2023-02-05T20:14:26.606Z,-2.00
2023-02-05T20:19:30.073Z,-2.20
2023-02-05T20:24:33.546Z,-2.20
2023-02-05T20:29:55.683Z,-2.30
2023-02-05T20:34:59.269Z,-2.30
2023-02-05T20:40:02.813Z,-5.60
2023-02-05T20:45:08.596Z,-2.40
2023-02-05T20:50:11.993Z,-3.20
2023-02-05T20:55:15.583Z,-0.20
2023-02-05T21:00:23.518Z,-2.40
2023-02-05T21:05:27.104Z,-2.40
2023-02-05T21:10:31.814Z,-2.50
2023-02-05T21:15:36.549Z,-0.50
2023-02-05T21:20:40.745Z,0.80
2023-02-05T21:25:45.324Z,-2.70
2023-02-05T21:30:51.445Z,-2.60
2023-02-05T21:35:54.944Z,-2.90
2023-02-05T21:40:58.421Z,-1.60
2023-02-05T21:46:04.566Z,-2.30
2023-02-05T21:51:08.585Z,-2.60
2023-02-05T21:56:14.823Z,-2.80
2023-02-05T22:01:22.243Z,-3.00
2023-02-05T22:06:28.044Z,-3.00
2023-02-05T22:11:31.717Z,-2.90
2023-02-05T22:16:37.301Z,-2.70
2023-02-05T22:21:43.953Z,-2.80
2023-02-05T22:26:48.403Z,-2.90
2023-02-05T22:31:54.517Z,-3.00
2023-02-05T22:36:59.709Z,-3.10
2023-02-05T22:42:04.446Z,-3.20
2023-02-05T22:47:09.325Z,-3.20
2023-02-05T22:52:12.599Z,-3.30
2023-02-05T22:57:16.157Z,-3.20
2023-02-05T23:02:20.986Z,-3.00
2023-02-05T23:07:24.307Z,-3.10
2023-02-05T23:12:27.601Z,-3.10
2023-02-05T23:17:32.264Z,-3.00
2023-02-05T23:22:35.570Z,-1.90
2023-02-05T23:27:39.189Z,-3.20
2023-02-05T23:32:44.038Z,-3.20
2023-02-05T23:37:47.512Z,-3.30
2023-02-05T23:42:50.841Z,-3.20
2023-02-05T23:47:55.671Z,-3.30
2023-02-05T23:52:59.032Z,-3.30
2023-02-05T23:58:02.402Z,-3.40
